createdAt,value
2018-10-07T00:00:34.727Z,23.33
2018-10-07T00:03:05.485Z,18.57
2018-10-07T00:05:34.586Z,23.83
2018-10-07T00:08:03.689Z,23.20
2018-10-07T00:10:32.806Z,26.50
2018-10-07T00:13:01.911Z,20.40
2018-10-07T00:15:31.033Z,23.43
2018-10-07T00:18:00.122Z,23.50
2018-10-07T00:20:29.741Z,21.07
2018-10-07T00:22:58.915Z,19.70
2018-10-07T00:25:28.006Z,20.07
2018-10-07T00:27:57.126Z,22.93
2018-10-07T00:30:26.230Z,20.40
2018-10-07T00:32:55.407Z,24.90
2018-10-07T00:35:24.629Z,21.37
2018-10-07T00:37:53.726Z,21.20
2018-10-07T00:40:23.598Z,20.93
2018-10-07T00:42:52.718Z,18.83
2018-10-07T00:45:22.510Z,20.47
2018-10-07T00:47:51.759Z,19.20
2018-10-07T00:50:20.508Z,22.80
2018-10-07T00:52:49.669Z,23.07
2018-10-07T00:55:18.778Z,20.00
2018-10-07T00:57:47.881Z,18.83
2018-10-07T01:00:16.982Z,23.60
2018-10-07T01:02:46.121Z,20.17
2018-10-07T01:05:15.254Z,20.40
2018-10-07T01:07:44.386Z,20.97
2018-10-07T01:10:13.491Z,27.40
2018-10-07T01:12:42.621Z,18.77
2018-10-07T01:15:11.778Z,22.63
2018-10-07T01:17:40.874Z,20.20
2018-10-07T01:20:09.987Z,23.00
2018-10-07T01:22:40.418Z,21.37
2018-10-07T01:25:09.519Z,18.60
2018-10-07T01:27:38.630Z,20.47
2018-10-07T01:30:08.206Z,20.40
2018-10-07T01:32:37.370Z,22.97
2018-10-07T01:35:06.480Z,20.93
2018-10-07T01:37:35.603Z,20.10
2018-10-07T01:40:04.807Z,19.37
2018-10-07T01:42:34.040Z,19.80
2018-10-07T01:45:03.208Z,16.77
2018-10-07T01:47:31.998Z,22.53
2018-10-07T01:50:01.107Z,20.67
2018-10-07T01:52:30.318Z,18.63
2018-10-07T01:54:59.503Z,19.47
2018-10-07T01:57:28.626Z,23.13
2018-10-07T01:59:57.750Z,20.30
2018-10-07T02:02:26.861Z,19.80
2018-10-07T02:04:56.400Z,19.23
2018-10-07T02:07:25.653Z,26.60
2018-10-07T02:09:54.959Z,17.27
2018-10-07T02:12:24.165Z,17.50
2018-10-07T02:14:53.274Z,20.00
2018-10-07T02:17:22.598Z,19.00
2018-10-07T02:19:51.703Z,19.83
2018-10-07T02:22:20.895Z,22.70
2018-10-07T02:24:49.990Z,27.43
2018-10-07T02:27:19.114Z,20.23
2018-10-07T02:29:48.226Z,20.57
2018-10-07T02:32:17.871Z,21.93
2018-10-07T02:34:47.042Z,23.27
2018-10-07T02:37:16.201Z,23.87
2018-10-07T02:39:45.335Z,24.20
2018-10-07T02:42:14.454Z,19.03
2018-10-07T02:44:44.631Z,23.00
2018-10-07T02:47:13.755Z,21.90
2018-10-07T02:49:43.945Z,21.63
2018-10-07T02:52:13.274Z,17.90
2018-10-07T02:54:42.438Z,21.07
2018-10-07T02:57:11.574Z,22.20
2018-10-07T02:59:41.342Z,23.20
2018-10-07T03:02:10.465Z,20.77
2018-10-07T03:04:39.601Z,18.23
2018-10-07T03:07:08.768Z,22.53
2018-10-07T03:09:38.021Z,18.97
2018-10-07T03:12:07.277Z,19.33
2018-10-07T03:14:36.610Z,21.90
2018-10-07T03:17:05.722Z,18.83
2018-10-07T03:19:34.826Z,23.30
2018-10-07T03:22:03.962Z,24.30
2018-10-07T03:24:33.081Z,22.73
2018-10-07T03:27:02.279Z,22.17
2018-10-07T03:29:31.419Z,28.93
2018-10-07T03:32:00.453Z,21.70
2018-10-07T03:34:29.563Z,25.17
2018-10-07T03:36:58.668Z,26.90
2018-10-07T03:39:27.789Z,19.30
2018-10-07T03:41:56.897Z,25.37
2018-10-07T03:44:26.011Z,22.13
2018-10-07T03:46:55.645Z,21.40
2018-10-07T03:49:24.754Z,27.27
2018-10-07T03:51:53.967Z,22.43
2018-10-07T03:54:23.169Z,28.50
2018-10-07T03:56:52.209Z,22.50
2018-10-07T03:59:21.346Z,22.33
2018-10-07T04:01:50.494Z,22.83
2018-10-07T04:04:19.587Z,30.00
2018-10-07T04:06:48.810Z,21.67
2018-10-07T04:09:17.938Z,22.27
2018-10-07T04:11:47.059Z,30.10
2018-10-07T04:14:16.202Z,20.83
2018-10-07T04:16:45.319Z,20.77
2018-10-07T04:19:14.435Z,21.67
2018-10-07T04:21:50.141Z,21.30
2018-10-07T04:24:19.267Z,26.77
2018-10-07T04:26:49.957Z,27.00
2018-10-07T04:29:19.075Z,26.97
2018-10-07T04:31:48.421Z,26.33
2018-10-07T04:34:17.945Z,23.27
2018-10-07T04:36:47.222Z,27.03
2018-10-07T04:39:16.422Z,26.77
2018-10-07T04:41:45.658Z,27.10
2018-10-07T04:44:14.936Z,27.17
2018-10-07T04:46:43.987Z,27.50
2018-10-07T04:49:13.083Z,26.00
2018-10-07T04:51:42.924Z,24.03
2018-10-07T04:54:12.049Z,25.60
2018-10-07T04:56:41.167Z,27.77
2018-10-07T04:59:10.313Z,34.17
2018-10-07T05:01:39.436Z,29.67
2018-10-07T05:04:08.574Z,29.83
2018-10-07T05:06:37.689Z,33.37
2018-10-07T05:09:08.954Z,39.53
2018-10-07T05:11:38.793Z,29.37
2018-10-07T05:14:09.430Z,35.50
2018-10-07T05:16:47.580Z,36.47
2018-10-07T05:19:17.125Z,31.50
2018-10-07T05:21:46.270Z,34.23
2018-10-07T05:24:15.393Z,34.70
2018-10-07T05:26:44.512Z,26.43
2018-10-07T05:29:13.632Z,30.60
2018-10-07T05:31:42.966Z,38.87
2018-10-07T05:34:12.197Z,32.80
2018-10-07T05:36:41.416Z,34.80
2018-10-07T05:39:11.897Z,32.03
2018-10-07T05:41:40.574Z,30.03
2018-10-07T05:44:10.946Z,36.93
2018-10-07T05:46:40.022Z,42.67
2018-10-07T05:49:09.126Z,37.80
2018-10-07T05:51:38.244Z,37.60
2018-10-07T05:54:07.551Z,37.00
2018-10-07T05:56:36.689Z,37.20
2018-10-07T05:59:07.335Z,33.13
2018-10-07T06:01:40.208Z,28.70
2018-10-07T06:04:22.690Z,32.27
2018-10-07T06:06:52.363Z,32.83
2018-10-07T06:09:27.801Z,37.90
2018-10-07T06:11:57.715Z,35.30
2018-10-07T06:14:43.733Z,32.77
2018-10-07T06:17:12.880Z,29.37
2018-10-07T06:19:42.004Z,28.07
2018-10-07T06:22:11.101Z,26.50
2018-10-07T06:24:40.226Z,25.30
2018-10-07T06:27:09.346Z,31.40
2018-10-07T06:29:38.846Z,26.57
2018-10-07T06:32:08.001Z,23.13
2018-10-07T06:34:37.126Z,18.17
2018-10-07T06:37:07.149Z,15.33
2018-10-07T06:39:36.409Z,16.97
2018-10-07T06:42:07.631Z,19.73
2018-10-07T06:44:36.965Z,19.00
2018-10-07T06:47:07.446Z,15.40
2018-10-07T06:49:36.940Z,16.20
2018-10-07T06:52:06.234Z,17.43
2018-10-07T06:54:35.334Z,19.60
2018-10-07T06:57:04.917Z,16.83
2018-10-07T06:59:34.087Z,14.40
2018-10-07T07:02:03.823Z,15.30
2018-10-07T07:04:33.010Z,15.50
2018-10-07T07:07:02.138Z,17.47
2018-10-07T07:09:31.254Z,14.77
2018-10-07T07:12:00.421Z,16.40
2018-10-07T07:14:29.534Z,19.57
2018-10-07T07:16:58.647Z,13.80
2018-10-07T07:19:28.977Z,14.30
2018-10-07T07:21:58.122Z,16.13
2018-10-07T07:24:28.855Z,13.43
2018-10-07T07:26:58.157Z,14.10
2018-10-07T07:29:27.854Z,16.37
2018-10-07T07:31:56.997Z,16.87
2018-10-07T07:34:26.108Z,13.60
2018-10-07T07:36:55.518Z,13.53
2018-10-07T07:39:25.025Z,14.53
2018-10-07T07:41:54.329Z,11.70
2018-10-07T07:44:23.050Z,14.10
2018-10-07T07:46:52.239Z,13.77
2018-10-07T07:49:21.410Z,15.73
2018-10-07T07:51:50.925Z,15.60
2018-10-07T07:54:20.078Z,13.10
2018-10-07T07:56:49.978Z,12.67
2018-10-07T07:59:19.071Z,14.03
2018-10-07T08:01:48.205Z,12.37
2018-10-07T08:04:17.354Z,16.80
2018-10-07T08:06:46.434Z,12.50
2018-10-07T08:09:16.253Z,16.23
2018-10-07T08:11:45.350Z,18.43
2018-10-07T08:14:14.523Z,11.97
2018-10-07T08:16:43.726Z,14.03
2018-10-07T08:19:13.527Z,13.13
2018-10-07T08:21:42.636Z,13.50
2018-10-07T08:24:13.277Z,14.87
2018-10-07T08:26:42.549Z,15.03
2018-10-07T08:29:12.375Z,13.10
2018-10-07T08:31:42.022Z,14.40
2018-10-07T08:34:11.295Z,15.30
2018-10-07T08:36:41.298Z,16.20
2018-10-07T08:39:10.925Z,13.17
2018-10-07T08:41:40.422Z,13.50
2018-10-07T08:44:09.618Z,10.63
2018-10-07T08:46:39.343Z,11.67
2018-10-07T08:49:08.629Z,13.17
2018-10-07T08:51:38.242Z,11.23
2018-10-07T08:54:07.808Z,11.40
2018-10-07T08:56:37.071Z,12.83
2018-10-07T08:59:06.560Z,10.77
2018-10-07T09:01:36.766Z,11.20
2018-10-07T09:04:06.038Z,10.63
2018-10-07T09:06:34.878Z,12.00
2018-10-07T09:09:05.767Z,10.17
2018-10-07T09:11:36.125Z,11.97
2018-10-07T09:14:06.098Z,11.43
2018-10-07T09:16:35.355Z,12.03
2018-10-07T09:19:04.527Z,9.97
2018-10-07T09:21:33.652Z,10.93
2018-10-07T09:24:05.298Z,10.67
2018-10-07T09:26:34.809Z,9.30
2018-10-07T09:29:04.217Z,10.27
2018-10-07T09:31:33.577Z,14.33
2018-10-07T09:34:02.414Z,12.40
2018-10-07T09:36:31.290Z,11.57
2018-10-07T09:39:00.602Z,9.70
2018-10-07T09:41:30.705Z,10.07
2018-10-07T09:43:59.921Z,10.10
2018-10-07T09:46:29.190Z,13.37
2018-10-07T09:48:58.331Z,9.17
2018-10-07T09:51:27.430Z,9.93
2018-10-07T09:53:57.297Z,10.70
2018-10-07T09:56:26.682Z,12.67
2018-10-07T09:58:55.910Z,15.30
2018-10-07T10:01:25.797Z,10.30
2018-10-07T10:03:54.909Z,11.70
2018-10-07T10:06:24.573Z,12.57
2018-10-07T10:08:53.869Z,14.97
2018-10-07T10:11:23.598Z,14.30
2018-10-07T10:13:53.335Z,10.87
2018-10-07T10:16:30.630Z,14.63
2018-10-07T10:18:59.753Z,9.30
2018-10-07T10:21:36.338Z,13.50
2018-10-07T10:24:28.782Z,11.20
2018-10-07T10:27:11.715Z,14.60
2018-10-07T10:29:49.681Z,8.50
2018-10-07T10:32:30.655Z,16.27
2018-10-07T10:35:20.630Z,10.07
2018-10-07T10:38:04.310Z,12.90
2018-10-07T10:40:38.447Z,9.67
2018-10-07T10:43:20.036Z,9.30
2018-10-07T10:47:58.281Z,8.70
2018-10-07T10:50:45.230Z,9.70
2018-10-07T10:53:23.922Z,10.90
2018-10-07T10:56:29.778Z,8.83
2018-10-07T11:01:14.517Z,10.60
2018-10-07T11:03:59.466Z,8.83
2018-10-07T11:06:46.748Z,10.83
2018-10-07T11:09:40.173Z,14.87
2018-10-07T11:14:28.971Z,10.53
2018-10-07T11:17:19.293Z,11.10
2018-10-07T11:19:57.171Z,9.13
2018-10-07T11:23:08.302Z,14.97
2018-10-07T11:25:53.041Z,9.07
2018-10-07T11:28:26.202Z,11.57
2018-10-07T11:32:07.137Z,10.80
2018-10-07T11:36:51.297Z,9.50
2018-10-07T11:39:44.057Z,9.20
2018-10-07T11:42:26.231Z,11.13
2018-10-07T11:45:08.685Z,10.43
2018-10-07T11:49:56.537Z,15.10
2018-10-07T11:52:46.044Z,9.50
2018-10-07T11:55:15.126Z,11.50
2018-10-07T11:57:44.274Z,15.10
2018-10-07T12:00:13.463Z,9.50
2018-10-07T12:02:42.591Z,8.07
2018-10-07T12:05:11.670Z,8.60
2018-10-07T12:07:40.803Z,7.80
2018-10-07T12:10:09.954Z,9.63
2018-10-07T12:12:39.506Z,12.73
2018-10-07T12:15:08.734Z,12.00
2018-10-07T12:17:38.514Z,9.43
2018-10-07T12:20:08.948Z,10.50
2018-10-07T12:22:38.789Z,11.30
2018-10-07T12:25:07.946Z,9.50
2018-10-07T12:27:37.110Z,10.33
2018-10-07T12:30:06.853Z,9.80
2018-10-07T12:32:35.962Z,9.83
2018-10-07T12:35:05.134Z,10.07
2018-10-07T12:37:41.360Z,9.00
2018-10-07T12:40:10.500Z,10.83
2018-10-07T12:42:39.644Z,14.80
2018-10-07T12:45:08.769Z,13.73
2018-10-07T12:47:38.777Z,9.10
2018-10-07T12:50:08.386Z,8.17
2018-10-07T12:52:38.417Z,8.90
2018-10-07T12:55:07.790Z,15.13
2018-10-07T12:57:37.555Z,12.10
2018-10-07T13:00:06.293Z,12.93
2018-10-07T13:02:35.576Z,16.23
2018-10-07T13:05:04.759Z,15.07
2018-10-07T13:07:33.851Z,8.87
2018-10-07T13:10:02.962Z,11.20
2018-10-07T13:12:32.114Z,9.30
2018-10-07T13:15:01.314Z,10.20
2018-10-07T13:17:30.434Z,12.67
2018-10-07T13:19:59.978Z,10.07
2018-10-07T13:22:29.347Z,15.17
2018-10-07T13:24:58.446Z,9.23
2018-10-07T13:27:27.529Z,8.60
2018-10-07T13:29:56.642Z,10.53
2018-10-07T13:32:26.148Z,9.00
2018-10-07T13:34:55.280Z,8.70
2018-10-07T13:37:24.693Z,9.07
2018-10-07T13:39:53.857Z,10.13
2018-10-07T13:42:22.958Z,6.63
2018-10-07T13:44:52.082Z,9.20
2018-10-07T13:47:21.314Z,9.57
2018-10-07T13:49:50.982Z,7.57
2018-10-07T13:52:20.141Z,8.20
2018-10-07T13:54:49.998Z,7.63
2018-10-07T13:57:19.287Z,7.73
2018-10-07T13:59:48.538Z,10.23
2018-10-07T14:02:17.923Z,11.40
2018-10-07T14:04:47.394Z,10.50
2018-10-07T14:07:16.662Z,11.87
2018-10-07T14:09:45.941Z,7.70
2018-10-07T14:12:15.117Z,7.10
2018-10-07T14:14:46.614Z,12.30
2018-10-07T14:17:15.885Z,9.40
2018-10-07T14:19:45.182Z,6.87
2018-10-07T14:22:14.425Z,6.33
2018-10-07T14:24:45.438Z,11.80
2018-10-07T14:27:15.289Z,9.07
2018-10-07T14:29:44.387Z,8.80
2018-10-07T14:32:13.477Z,10.83
2018-10-07T14:34:44.706Z,7.73
2018-10-07T14:37:13.833Z,9.23
2018-10-07T14:39:42.910Z,7.37
2018-10-07T14:42:12.225Z,9.20
2018-10-07T14:44:41.743Z,8.70
2018-10-07T14:47:10.830Z,8.60
2018-10-07T14:49:40.085Z,9.30
2018-10-07T14:52:09.445Z,13.23
2018-10-07T14:54:38.538Z,9.07
2018-10-07T14:57:07.650Z,8.33
2018-10-07T14:59:37.618Z,7.47
2018-10-07T15:02:07.684Z,9.07
2018-10-07T15:04:36.959Z,7.77
2018-10-07T15:07:06.286Z,7.47
2018-10-07T15:09:35.578Z,7.97
2018-10-07T15:12:04.630Z,10.37
2018-10-07T15:14:35.038Z,9.80
2018-10-07T15:17:04.561Z,11.10
2018-10-07T15:19:33.649Z,10.17
2018-10-07T15:22:03.047Z,9.90
2018-10-07T15:24:32.277Z,9.50
2018-10-07T15:27:01.417Z,7.97
2018-10-07T15:29:30.818Z,13.50
2018-10-07T15:31:59.854Z,7.43
2018-10-07T15:34:28.986Z,11.20
2018-10-07T15:36:58.474Z,6.30
2018-10-07T15:39:27.710Z,9.30
2018-10-07T15:41:57.002Z,6.70
2018-10-07T15:44:26.298Z,8.97
2018-10-07T15:46:55.657Z,10.83
2018-10-07T15:49:25.262Z,10.97
2018-10-07T15:51:56.247Z,12.97
2018-10-07T15:54:26.093Z,13.40
2018-10-07T15:56:55.466Z,9.47
2018-10-07T15:59:24.838Z,11.03
2018-10-07T16:01:54.325Z,10.73
2018-10-07T16:04:23.962Z,12.47
2018-10-07T16:06:53.446Z,18.40
2018-10-07T16:09:23.197Z,8.07
2018-10-07T16:11:53.522Z,12.00
2018-10-07T16:14:23.514Z,8.63
2018-10-07T16:16:54.114Z,11.60
2018-10-07T16:19:23.328Z,9.37
2018-10-07T16:21:52.447Z,8.57
2018-10-07T16:24:21.735Z,10.07
2018-10-07T16:26:52.483Z,12.43
2018-10-07T16:29:21.878Z,14.50
2018-10-07T16:31:51.021Z,8.83
2018-10-07T16:34:20.181Z,8.83
2018-10-07T16:36:49.310Z,10.20
2018-10-07T16:39:18.552Z,13.17
2018-10-07T16:41:47.714Z,8.30
2018-10-07T16:44:16.813Z,12.07
2018-10-07T16:46:46.249Z,8.23
2018-10-07T16:49:15.363Z,9.50
2018-10-07T16:51:44.544Z,10.10
2018-10-07T16:54:13.832Z,9.80
2018-10-07T16:56:43.478Z,8.87
2018-10-07T16:59:13.145Z,10.33
2018-10-07T17:01:42.437Z,13.37
2018-10-07T17:04:11.549Z,10.77
2018-10-07T17:06:41.017Z,12.20
2018-10-07T17:09:11.376Z,10.67
2018-10-07T17:11:41.226Z,9.83
2018-10-07T17:14:10.442Z,11.30
2018-10-07T17:16:39.620Z,13.80
2018-10-07T17:19:08.837Z,9.83
2018-10-07T17:21:38.154Z,15.50
2018-10-07T17:24:07.246Z,11.47
2018-10-07T17:26:37.213Z,15.60
2018-10-07T17:29:06.991Z,15.67
2018-10-07T17:31:36.080Z,14.47
2018-10-07T17:34:05.218Z,12.57
2018-10-07T17:36:34.369Z,13.00
2018-10-07T17:39:05.978Z,16.63
2018-10-07T17:41:35.083Z,17.67
2018-10-07T17:44:04.210Z,14.63
2018-10-07T17:46:33.402Z,14.10
2018-10-07T17:49:02.738Z,14.30
2018-10-07T17:51:32.264Z,19.40
2018-10-07T17:54:01.514Z,25.40
2018-10-07T17:56:30.605Z,14.43
2018-10-07T17:58:59.941Z,15.13
2018-10-07T18:01:29.495Z,18.23
2018-10-07T18:04:00.266Z,15.33
2018-10-07T18:06:29.341Z,22.47
2018-10-07T18:08:58.506Z,20.57
2018-10-07T18:11:27.590Z,16.80
2018-10-07T18:13:57.929Z,16.60
2018-10-07T18:16:26.782Z,16.30
2018-10-07T18:18:56.105Z,16.17
2018-10-07T18:21:25.251Z,17.20
2018-10-07T18:23:54.629Z,21.57
2018-10-07T18:26:23.741Z,26.23
2018-10-07T18:28:53.319Z,21.93
2018-10-07T18:31:22.230Z,19.83
2018-10-07T18:33:51.329Z,23.63
2018-10-07T18:36:20.547Z,22.60
2018-10-07T18:38:50.186Z,23.97
2018-10-07T18:41:19.354Z,30.30
2018-10-07T18:43:48.498Z,20.70
2018-10-07T18:46:18.075Z,25.17
2018-10-07T18:48:47.326Z,23.60
2018-10-07T18:51:16.370Z,23.97
2018-10-07T18:53:45.496Z,26.23
2018-10-07T18:56:14.641Z,24.67
2018-10-07T18:58:44.517Z,24.70
2018-10-07T19:01:14.411Z,24.07
2018-10-07T19:03:43.218Z,25.90
2018-10-07T19:06:12.320Z,24.83
2018-10-07T19:08:41.478Z,31.40
2018-10-07T19:11:10.586Z,25.07
2018-10-07T19:13:46.069Z,27.23
2018-10-07T19:16:17.622Z,25.30
2018-10-07T19:18:47.370Z,26.73
2018-10-07T19:21:16.754Z,30.10
2018-10-07T19:23:46.146Z,22.60
2018-10-07T19:26:15.717Z,31.27
2018-10-07T19:28:45.083Z,27.23
2018-10-07T19:31:14.422Z,26.73
2018-10-07T19:33:44.657Z,31.40
2018-10-07T19:36:13.858Z,33.13
2018-10-07T19:38:43.015Z,24.23
2018-10-07T19:41:12.143Z,29.73
2018-10-07T19:43:41.277Z,29.40
2018-10-07T19:46:10.421Z,28.30
2018-10-07T19:48:40.287Z,24.17
2018-10-07T19:51:09.702Z,28.00
2018-10-07T19:53:39.385Z,26.53
2018-10-07T19:56:07.369Z,24.83
2018-10-07T19:58:36.497Z,26.33
2018-10-07T20:01:06.110Z,28.57
2018-10-07T20:03:35.665Z,26.17
2018-10-07T20:06:05.294Z,28.73
2018-10-07T20:08:35.630Z,27.23
2018-10-07T20:11:04.958Z,29.00
2018-10-07T20:13:34.123Z,32.77
2018-10-07T20:16:04.006Z,26.60
2018-10-07T20:18:35.261Z,31.37
2018-10-07T20:21:04.657Z,32.00
2018-10-07T20:23:34.564Z,31.83
2018-10-07T20:26:04.548Z,30.27
2018-10-07T20:28:34.453Z,27.60
2018-10-07T20:31:09.227Z,32.70
2018-10-07T20:33:40.102Z,31.17
2018-10-07T20:36:09.977Z,35.90
2018-10-07T20:38:39.841Z,32.10
2018-10-07T20:41:09.815Z,30.90
2018-10-07T20:43:39.681Z,29.30
2018-10-07T20:46:08.958Z,29.10
2018-10-07T20:48:38.657Z,35.23
2018-10-07T20:51:08.502Z,30.93
2018-10-07T20:53:37.886Z,36.77
2018-10-07T20:56:07.455Z,35.73
2018-10-07T20:58:37.727Z,34.77
2018-10-07T21:01:07.037Z,30.27
2018-10-07T21:03:36.538Z,35.53
2018-10-07T21:06:06.030Z,31.10
2018-10-07T21:08:36.727Z,37.53
2018-10-07T21:11:06.201Z,35.80
2018-10-07T21:13:35.334Z,41.27
2018-10-07T21:16:05.691Z,38.17
2018-10-07T21:18:36.028Z,39.47
2018-10-07T21:21:05.828Z,35.87
2018-10-07T21:23:36.334Z,36.07
2018-10-07T21:26:05.482Z,34.97
2018-10-07T21:28:34.843Z,53.37
2018-10-07T21:31:04.019Z,35.50
2018-10-07T21:33:34.774Z,34.67
2018-10-07T21:36:04.030Z,36.47
2018-10-07T21:38:33.287Z,36.70
2018-10-07T21:41:02.561Z,33.60
2018-10-07T21:43:31.761Z,34.17
2018-10-07T21:46:00.998Z,36.63
2018-10-07T21:48:30.130Z,36.90
2018-10-07T21:50:59.629Z,33.30
2018-10-07T21:53:29.100Z,43.57
2018-10-07T21:55:58.196Z,33.50
2018-10-07T21:58:27.299Z,38.33
2018-10-07T22:00:56.401Z,41.90
2018-10-07T22:03:26.283Z,36.57
2018-10-07T22:05:55.435Z,43.90
2018-10-07T22:08:24.617Z,40.17
2018-10-07T22:10:54.428Z,40.97
2018-10-07T22:13:25.155Z,38.67
2018-10-07T22:15:54.468Z,39.90
2018-10-07T22:18:24.178Z,42.30
2018-10-07T22:20:53.506Z,46.83
2018-10-07T22:23:26.412Z,39.20
2018-10-07T22:25:56.030Z,37.87
2018-10-07T22:28:25.125Z,39.37
2018-10-07T22:30:54.234Z,37.67
2018-10-07T22:33:24.459Z,37.20
2018-10-07T22:35:53.839Z,38.73
2018-10-07T22:38:23.459Z,39.20
2018-10-07T22:40:54.162Z,41.30
2018-10-07T22:43:22.978Z,37.27
2018-10-07T22:45:52.305Z,44.47
2018-10-07T22:48:23.078Z,38.10
2018-10-07T22:50:52.515Z,45.13
2018-10-07T22:53:21.654Z,48.20
2018-10-07T22:55:50.742Z,49.93
2018-10-07T22:58:20.290Z,43.73
2018-10-07T23:00:49.436Z,43.23
2018-10-07T23:03:19.348Z,42.10
2018-10-07T23:05:48.558Z,46.80
2018-10-07T23:08:18.412Z,51.77
2018-10-07T23:10:47.774Z,49.87
2018-10-07T23:13:18.061Z,46.67
2018-10-07T23:15:47.369Z,44.60
2018-10-07T23:18:16.758Z,53.33
2018-10-07T23:20:46.206Z,46.37
2018-10-07T23:23:15.574Z,51.43
2018-10-07T23:25:44.736Z,47.53
2018-10-07T23:28:13.898Z,47.07
2018-10-07T23:30:43.069Z,48.30
2018-10-07T23:33:12.238Z,45.33
2018-10-07T23:35:41.391Z,44.77
2018-10-07T23:38:10.672Z,44.77
2018-10-07T23:40:40.302Z,49.43
2018-10-07T23:43:09.434Z,39.53
2018-10-07T23:45:38.707Z,41.43
2018-10-07T23:48:07.879Z,49.20
2018-10-07T23:50:37.841Z,46.83
2018-10-07T23:53:06.978Z,46.63
2018-10-07T23:55:36.130Z,50.83
2018-10-07T23:58:05.271Z,42.57
